createdAt,value
2023-04-07T00:08:05.319Z,20
2023-04-07T00:23:14.861Z,16.6
2023-04-07T00:38:24.196Z,15.4
2023-04-07T00:53:33.857Z,19.1
2023-04-07T01:08:43.554Z,18.3
2023-04-07T01:23:54.069Z,13.9
2023-04-07T01:39:04.071Z,14.1
2023-04-07T01:54:13.521Z,17.8
2023-04-07T02:09:22.820Z,16.4
2023-04-07T02:24:32.750Z,14
2023-04-07T02:39:42.178Z,14.8
2023-04-07T02:54:52.510Z,14.6
2023-04-07T03:10:02.446Z,15.4
2023-04-07T03:25:12.639Z,15
2023-04-07T03:40:22.024Z,14.3
2023-04-07T03:55:31.716Z,19.2
2023-04-07T04:10:41.086Z,19.6
2023-04-07T04:25:50.285Z,20.1
2023-04-07T04:40:59.682Z,16.2
2023-04-07T04:56:09.355Z,17.9
2023-04-07T05:11:19.371Z,19.1
2023-04-07T05:26:29.732Z,16.6
2023-04-07T05:41:39.638Z,17.2
2023-04-07T05:56:50.270Z,18.5
2023-04-07T06:12:00.348Z,16.9
2023-04-07T06:27:10.241Z,16.7
2023-04-07T06:42:19.970Z,17.6
2023-04-07T06:57:28.549Z,17.9
2023-04-07T07:12:38.019Z,20
2023-04-07T07:27:49.306Z,18.3
2023-04-07T07:42:58.871Z,23.7
2023-04-07T07:58:08.717Z,14.6
2023-04-07T08:13:18.534Z,17.8
2023-04-07T08:28:29.594Z,17.8
2023-04-07T08:43:38.943Z,15.3
2023-04-07T08:58:49.252Z,13.3
2023-04-07T09:13:59.313Z,11
2023-04-07T09:29:08.835Z,11.6
2023-04-07T09:44:18.740Z,15.5
2023-04-07T09:59:28.699Z,12.4
2023-04-07T10:14:40.761Z,14.5
2023-04-07T10:29:50.287Z,11
2023-04-07T10:45:00.625Z,12.6
2023-04-07T11:00:09.954Z,11.6
2023-04-07T11:15:19.801Z,13.3
2023-04-07T11:30:29.345Z,12.3
2023-04-07T11:45:38.760Z,12.8
2023-04-07T12:00:49.705Z,11.9
2023-04-07T12:16:00.557Z,13.1
2023-04-07T12:31:11.075Z,13
2023-04-07T12:46:21.377Z,12.5
2023-04-07T13:01:31.986Z,14.6
2023-04-07T13:16:42.678Z,9.9
2023-04-07T13:31:53.677Z,9.5
2023-04-07T13:47:04.467Z,9
2023-04-07T14:02:15.021Z,9.5
2023-04-07T14:17:25.513Z,10
2023-04-07T14:32:35.781Z,6.5
2023-04-07T14:47:50.122Z,7.1
2023-04-07T15:03:01.333Z,9.8
2023-04-07T15:18:11.625Z,5.9
2023-04-07T15:33:22.178Z,8.5
2023-04-07T15:48:34.669Z,5.1
2023-04-07T16:03:45.357Z,7.7
2023-04-07T16:18:53.276Z,4.8
2023-04-07T16:34:03.936Z,6.2
2023-04-07T16:49:12.857Z,5.9
2023-04-07T17:04:19.242Z,6.8
2023-04-07T17:19:27.683Z,5.3
2023-04-07T17:34:36.196Z,8.5
2023-04-07T17:49:45.300Z,7.3
2023-04-07T18:04:55.076Z,8.2
2023-04-07T18:20:04.809Z,3.2
2023-04-07T18:35:13.874Z,4.2
2023-04-07T18:50:23.633Z,7.1
2023-04-07T19:05:33.557Z,4.6
2023-04-07T19:20:42.893Z,3.8
2023-04-07T19:35:52.510Z,3.7
2023-04-07T19:51:01.616Z,4.4
2023-04-07T20:06:11.046Z,4.7
2023-04-07T20:21:21.268Z,3.3
2023-04-07T20:36:30.957Z,4
2023-04-07T20:51:40.633Z,6.7
2023-04-07T21:06:49.866Z,5.3
2023-04-07T21:21:59.547Z,6.3
2023-04-07T21:37:08.964Z,5.8
2023-04-07T21:52:19.723Z,6.3
2023-04-07T22:07:29.208Z,6
2023-04-07T22:22:39.200Z,6.2
2023-04-07T22:37:49.486Z,7.6
2023-04-07T22:52:59.005Z,5.8
2023-04-07T23:08:08.738Z,5.2
2023-04-07T23:23:18.500Z,4.6
2023-04-07T23:38:28.173Z,5.7
2023-04-07T23:53:37.648Z,7.2
